Time;durP1;ratioP1;P1;durP2;ratioP2;P2;SDS_P1;SDS_P2;PMS_P1;PMS_P2;Temp;Humidity;BMP_temperature;BMP_pressure;BME280_temperature;BME280_humidity;BME280_pressure;Samples;Min_cycle;Max_cycle;Signal;HPM_P1;HPM_P2
2022/06/13 00:01:26;;;;;;;;;;;14.50;99.90;;;;;;5113038;28;19919;-68
2022/06/13 00:03:51;;;;;;;;;;;14.40;99.90;;;;;;5113187;27;20392;-68
2022/06/13 00:06:17;;;;;;;;;;;14.50;99.90;;;;;;5113067;28;19931;-67
2022/06/13 00:08:43;;;;;;;;;;;14.40;99.90;;;;;;5112783;28;19966;-68
2022/06/13 00:11:10;;;;;;;;;;;14.40;99.90;;;;;;5113099;28;19927;-68
2022/06/13 00:13:37;;;;;;;;;;;14.40;99.90;;;;;;5112881;28;19926;-68
2022/06/13 00:16:03;;;;;;;;;;;14.40;99.90;;;;;;5112814;28;19931;-68
2022/06/13 00:18:28;;;;;;;;;;;14.40;99.90;;;;;;5112672;28;19934;-68
2022/06/13 00:20:54;;;;;;;;;;;14.40;99.90;;;;;;5112942;28;20384;-68
2022/06/13 00:23:20;;;;;;;;;;;14.40;99.90;;;;;;5112835;28;19919;-68
2022/06/13 00:25:46;;;;;;;;;;;14.40;99.90;;;;;;5112732;28;19927;-67
2022/06/13 00:28:11;;;;;;;;;;;14.50;99.90;;;;;;5112515;28;19927;-67
2022/06/13 00:30:37;;;;;;;;;;;14.50;99.90;;;;;;5112278;28;19946;-68
2022/06/13 00:33:02;;;;;;;;;;;14.50;99.90;;;;;;5112633;28;20402;-67
2022/06/13 00:35:28;;;;;;;;;;;14.60;99.90;;;;;;5112389;28;19927;-68
2022/06/13 00:37:53;;;;;;;;;;;14.60;99.90;;;;;;5112655;28;19920;-68
2022/06/13 00:40:19;;;;;;;;;;;14.70;99.90;;;;;;5112264;28;19919;-68
2022/06/13 00:42:46;;;;;;;;;;;14.70;99.90;;;;;;5112429;28;19927;-68
2022/06/13 00:45:22;;;;;;;;;;;14.60;99.90;;;;;;5112294;28;20303;-67
2022/06/13 00:47:50;;;;;;;;;;;14.70;99.90;;;;;;5112301;28;19938;-68
2022/06/13 00:50:26;;;;;;;;;;;14.60;99.90;;;;;;5112064;28;20322;-68
2022/06/13 00:52:54;;;;;;;;;;;14.60;99.90;;;;;;5112207;27;19920;-68
2022/06/13 00:55:26;;;;;;;;;;;14.70;99.90;;;;;;5112109;28;19927;-67
2022/06/13 00:57:53;;;;;;;;;;;14.70;99.90;;;;;;5112231;28;19919;-67
2022/06/13 01:00:19;;;;;;;;;;;14.70;99.90;;;;;;5111928;28;20365;-67
2022/06/13 01:02:46;;;;;;;;;;;14.80;99.90;;;;;;5112118;28;19927;-68
2022/06/13 01:05:13;;;;;;;;;;;14.70;99.90;;;;;;5112013;28;19963;-68
2022/06/13 01:07:39;;;;;;;;;;;14.70;99.90;;;;;;5111972;28;19931;-68
2022/06/13 01:12:50;;;;;;;;;;;14.70;99.90;;;;;;5111632;28;19920;-67
2022/06/13 01:15:25;;;;;;;;;;;14.70;99.90;;;;;;5112044;28;19920;-68
2022/06/13 01:18:09;;;;;;;;;;;14.70;99.90;;;;;;5111873;28;19919;-67
2022/06/13 01:20:40;;;;;;;;;;;14.70;99.90;;;;;;5111497;28;19988;-68
2022/06/13 01:23:05;;;;;;;;;;;14.70;99.90;;;;;;5111951;28;19964;-67
2022/06/13 01:25:37;;;;;;;;;;;14.70;99.90;;;;;;5111671;28;19919;-68
2022/06/13 01:28:06;;;;;;;;;;;14.70;99.90;;;;;;5111761;28;19949;-68
2022/06/13 01:30:43;;;;;;;;;;;14.60;99.90;;;;;;5111367;28;19920;-67
2022/06/13 01:33:22;;;;;;;;;;;14.60;99.90;;;;;;5111521;28;19919;-68
2022/06/13 01:35:55;;;;;;;;;;;14.70;99.90;;;;;;5111788;28;19924;-68
2022/06/13 01:38:28;;;;;;;;;;;14.70;99.90;;;;;;5111580;28;20015;-68
2022/06/13 01:41:09;;;;;;;;;;;14.70;99.90;;;;;;5111662;28;19930;-68
2022/06/13 01:43:35;;;;;;;;;;;14.70;99.90;;;;;;5110173;28;19924;-68
2022/06/13 01:46:10;;;;;;;;;;;14.70;99.90;;;;;;5111530;28;19920;-67
2022/06/13 01:48:53;;;;;;;;;;;14.70;99.90;;;;;;5109963;28;19920;-68
2022/06/13 01:51:23;;;;;;;;;;;14.60;99.90;;;;;;5111702;28;19928;-68
2022/06/13 01:53:53;;;;;;;;;;;14.70;99.90;;;;;;5110467;28;20033;-67
2022/06/13 01:56:21;;;;;;;;;;;14.70;99.90;;;;;;5111715;28;19927;-68
2022/06/13 01:59:05;;;;;;;;;;;14.70;99.90;;;;;;5111285;28;19920;-67
2022/06/13 02:01:34;;;;;;;;;;;14.70;99.90;;;;;;5111488;28;19926;-68
2022/06/13 02:04:04;;;;;;;;;;;14.60;99.90;;;;;;5111340;28;19927;-68
2022/06/13 02:06:31;;;;;;;;;;;14.70;99.90;;;;;;5111185;28;20391;-68
2022/06/13 02:09:00;;;;;;;;;;;14.70;99.90;;;;;;5111306;28;19920;-68
2022/06/13 02:11:31;;;;;;;;;;;14.70;99.90;;;;;;5111294;28;19920;-68
2022/06/13 02:14:06;;;;;;;;;;;14.70;99.90;;;;;;5111269;28;19920;-68
2022/06/13 02:16:34;;;;;;;;;;;14.70;99.90;;;;;;5111568;28;19920;-68
2022/06/13 02:19:11;;;;;;;;;;;14.60;99.90;;;;;;5109605;28;19999;-68
2022/06/13 02:21:40;;;;;;;;;;;14.70;99.90;;;;;;5111352;28;19923;-68
2022/06/13 02:24:07;;;;;;;;;;;14.70;99.90;;;;;;5114992;28;20328;-68
2022/06/13 02:26:35;;;;;;;;;;;14.80;99.90;;;;;;5115039;27;19924;-68
2022/06/13 02:29:07;;;;;;;;;;;14.70;99.90;;;;;;5113589;28;20001;-68
2022/06/13 02:31:36;;;;;;;;;;;14.70;99.90;;;;;;5115218;28;19943;-67
2022/06/13 02:34:03;;;;;;;;;;;14.60;99.90;;;;;;5114796;28;20344;-68
2022/06/13 02:36:38;;;;;;;;;;;14.60;99.90;;;;;;5114947;28;19919;-67
2022/06/13 02:39:09;;;;;;;;;;;14.60;99.90;;;;;;5114556;28;20011;-68
2022/06/13 02:41:39;;;;;;;;;;;14.50;99.90;;;;;;5114741;28;19963;-68
2022/06/13 02:44:25;;;;;;;;;;;14.60;99.90;;;;;;5114837;28;19923;-68
2022/06/13 02:46:53;;;;;;;;;;;14.70;99.90;;;;;;5113298;28;19959;-68
2022/06/13 02:49:30;;;;;;;;;;;14.50;99.90;;;;;;5113296;28;19931;-67
2022/06/13 02:52:02;;;;;;;;;;;14.50;99.90;;;;;;5114560;28;20376;-68
2022/06/13 02:54:27;;;;;;;;;;;14.50;99.90;;;;;;5114612;28;19924;-68
2022/06/13 02:59:49;;;;;;;;;;;14.50;99.90;;;;;;5113995;28;20405;-67
2022/06/13 03:02:19;;;;;;;;;;;14.60;99.90;;;;;;5113287;28;20361;-67
2022/06/13 03:04:50;;;;;;;;;;;14.60;99.90;;;;;;5114141;28;19923;-68
2022/06/13 03:07:48;;;;;;;;;;;14.60;99.90;;;;;;5114348;28;19930;-68
2022/06/13 03:10:16;;;;;;;;;;;14.50;99.90;;;;;;5068494;28;19923;-68
2022/06/13 03:12:59;;;;;;;;;;;14.50;99.90;;;;;;5113494;28;20376;-68
2022/06/13 03:15:42;;;;;;;;;;;14.40;99.90;;;;;;5109816;28;19920;-68
2022/06/13 03:18:11;;;;;;;;;;;14.50;99.90;;;;;;5111437;28;20373;-68
2022/06/13 03:20:36;;;;;;;;;;;14.50;99.90;;;;;;5112147;28;19924;-68
2022/06/13 03:23:07;;;;;;;;;;;14.40;99.90;;;;;;5113837;28;19981;-68
2022/06/13 03:25:42;;;;;;;;;;;14.40;99.90;;;;;;5113915;27;20051;-67
2022/06/13 03:28:34;;;;;;;;;;;14.40;99.90;;;;;;5112602;28;19928;-68
2022/06/13 03:31:04;;;;;;;;;;;14.50;99.90;;;;;;5109164;28;19926;-68
2022/06/13 03:33:42;;;;;;;;;;;14.50;99.90;;;;;;5112392;28;19992;-68
2022/06/13 03:36:17;;;;;;;;;;;14.40;99.90;;;;;;5113351;28;20382;-68
2022/06/13 03:38:47;;;;;;;;;;;14.40;99.90;;;;;;5112398;28;20295;-68
2022/06/13 03:41:15;;;;;;;;;;;14.30;99.90;;;;;;5113732;28;19927;-68
2022/06/13 03:43:46;;;;;;;;;;;14.40;99.90;;;;;;5113477;28;19920;-68
2022/06/13 03:46:15;;;;;;;;;;;14.30;99.90;;;;;;5113409;28;20272;-68
2022/06/13 03:48:51;;;;;;;;;;;14.40;99.90;;;;;;5113293;28;19919;-68
2022/06/13 03:51:20;;;;;;;;;;;14.40;99.90;;;;;;5113380;28;20383;-68
2022/06/13 03:53:57;;;;;;;;;;;14.40;99.90;;;;;;5113425;27;19920;-68
2022/06/13 03:56:35;;;;;;;;;;;14.40;99.90;;;;;;5113320;28;19920;-68
2022/06/13 03:59:08;;;;;;;;;;;14.40;99.90;;;;;;5112751;28;19920;-68
2022/06/13 04:01:39;;;;;;;;;;;14.50;99.90;;;;;;5113332;28;19977;-68
2022/06/13 04:04:05;;;;;;;;;;;14.30;99.90;;;;;;5113210;28;19955;-68
2022/06/13 04:06:38;;;;;;;;;;;14.40;99.90;;;;;;5113012;28;19974;-68
2022/06/13 04:09:08;;;;;;;;;;;14.50;99.90;;;;;;5112661;28;19924;-68
2022/06/13 04:11:49;;;;;;;;;;;14.50;99.90;;;;;;5113279;28;19924;-68
2022/06/13 04:14:23;;;;;;;;;;;14.40;99.90;;;;;;5111551;28;19920;-68
2022/06/13 04:17:00;;;;;;;;;;;14.40;99.90;;;;;;5111639;28;19943;-68
2022/06/13 04:19:42;;;;;;;;;;;14.50;99.90;;;;;;5112562;28;19920;-68
2022/06/13 04:22:17;;;;;;;;;;;14.50;99.90;;;;;;5113092;28;19924;-67
2022/06/13 04:24:42;;;;;;;;;;;14.40;99.90;;;;;;5112910;28;19978;-68
2022/06/13 04:27:17;;;;;;;;;;;14.40;99.90;;;;;;5112599;28;20345;-67
2022/06/13 04:29:43;;;;;;;;;;;14.40;99.90;;;;;;5112380;28;20314;-68
2022/06/13 04:32:10;;;;;;;;;;;14.50;99.90;;;;;;5112508;28;19923;-68
2022/06/13 04:34:43;;;;;;;;;;;14.50;99.90;;;;;;5111479;28;19919;-68
2022/06/13 04:37:09;;;;;;;;;;;14.50;99.90;;;;;;5112528;28;19927;-67
2022/06/13 04:39:35;;;;;;;;;;;14.60;99.90;;;;;;5112318;28;19920;-68
2022/06/13 04:42:02;;;;;;;;;;;14.60;99.90;;;;;;5112441;28;19964;-68
2022/06/13 04:44:29;;;;;;;;;;;14.60;99.90;;;;;;5112129;28;19959;-68
2022/06/13 04:46:55;;;;;;;;;;;14.60;99.90;;;;;;5112222;28;19923;-67
2022/06/13 04:49:24;;;;;;;;;;;14.80;99.90;;;;;;5112209;28;20108;-68
2022/06/13 04:51:50;;;;;;;;;;;14.90;99.90;;;;;;5112461;27;19920;-67
2022/06/13 04:54:25;;;;;;;;;;;14.90;99.90;;;;;;5112376;28;20340;-68
2022/06/13 04:56:50;;;;;;;;;;;15.00;99.90;;;;;;5112317;28;19919;-68
2022/06/13 04:59:16;;;;;;;;;;;15.30;99.90;;;;;;5111727;28;19927;-68
2022/06/13 05:01:46;;;;;;;;;;;15.40;99.90;;;;;;5112285;28;20027;-68
2022/06/13 05:04:20;;;;;;;;;;;15.40;99.90;;;;;;5112106;28;19920;-68
2022/06/13 05:06:52;;;;;;;;;;;15.30;99.90;;;;;;5111968;28;19930;-68
2022/06/13 05:09:21;;;;;;;;;;;15.30;99.90;;;;;;5111744;28;19944;-68
2022/06/13 05:11:49;;;;;;;;;;;15.40;99.90;;;;;;5111882;28;19920;-68
2022/06/13 05:14:17;;;;;;;;;;;15.40;99.90;;;;;;5112062;28;19920;-68
2022/06/13 05:16:43;;;;;;;;;;;15.40;99.90;;;;;;5112011;28;19926;-68
2022/06/13 05:19:24;;;;;;;;;;;15.40;99.90;;;;;;5111658;28;19928;-68
2022/06/13 05:22:02;;;;;;;;;;;15.50;99.90;;;;;;5111867;28;20299;-68
2022/06/13 05:24:49;;;;;;;;;;;15.50;99.90;;;;;;5112041;28;19920;-68
2022/06/13 05:27:15;;;;;;;;;;;15.80;99.90;;;;;;5111888;28;19924;-68
2022/06/13 05:29:41;;;;;;;;;;;16.00;99.90;;;;;;5111490;28;20341;-67
2022/06/13 05:32:07;;;;;;;;;;;16.40;99.90;;;;;;5111718;28;19920;-68
2022/06/13 05:34:35;;;;;;;;;;;16.60;99.90;;;;;;5111514;28;19997;-68
2022/06/13 05:37:01;;;;;;;;;;;16.80;99.90;;;;;;5111887;28;19920;-68
2022/06/13 05:39:26;;;;;;;;;;;16.90;99.90;;;;;;5111538;28;19927;-68
2022/06/13 05:41:52;;;;;;;;;;;16.90;99.90;;;;;;5111762;28;19919;-68
2022/06/13 05:44:17;;;;;;;;;;;17.00;99.90;;;;;;5111657;28;20376;-68
2022/06/13 05:46:43;;;;;;;;;;;16.90;99.90;;;;;;5111465;28;19928;-68
2022/06/13 05:49:11;;;;;;;;;;;16.90;99.90;;;;;;5111211;28;19924;-68
2022/06/13 05:51:36;;;;;;;;;;;17.00;99.90;;;;;;5111735;28;20288;-68
2022/06/13 05:54:01;;;;;;;;;;;17.40;99.90;;;;;;5111544;28;19920;-68
2022/06/13 05:56:27;;;;;;;;;;;17.30;99.90;;;;;;5111555;28;20466;-68
2022/06/13 05:58:53;;;;;;;;;;;17.30;99.90;;;;;;5114779;28;19927;-68
2022/06/13 06:01:19;;;;;;;;;;;17.20;99.90;;;;;;5115532;28;19939;-68
2022/06/13 06:03:47;;;;;;;;;;;17.10;99.90;;;;;;5115366;28;19926;-68
2022/06/13 06:06:14;;;;;;;;;;;17.10;99.90;;;;;;5115550;28;19920;-68
2022/06/13 06:08:40;;;;;;;;;;;17.10;99.90;;;;;;5115228;28;19931;-68
2022/06/13 06:11:05;;;;;;;;;;;17.40;99.90;;;;;;5115500;28;20295;-68
2022/06/13 06:13:31;;;;;;;;;;;17.50;99.90;;;;;;5115362;28;19919;-68
2022/06/13 06:15:57;;;;;;;;;;;17.70;99.90;;;;;;5115291;28;19919;-68
2022/06/13 06:18:23;;;;;;;;;;;17.80;99.90;;;;;;5115157;27;19920;-68
2022/06/13 06:20:49;;;;;;;;;;;17.90;99.90;;;;;;5115360;28;19920;-68
2022/06/13 06:23:14;;;;;;;;;;;17.70;99.90;;;;;;5115280;28;19926;-68
2022/06/13 06:25:41;;;;;;;;;;;17.70;99.90;;;;;;5115150;28;19988;-68
2022/06/13 06:28:06;;;;;;;;;;;17.90;99.90;;;;;;5115071;28;19923;-68
2022/06/13 06:30:32;;;;;;;;;;;18.00;99.90;;;;;;5113388;28;20431;-68
2022/06/13 06:32:58;;;;;;;;;;;18.00;99.90;;;;;;5114788;28;19962;-68
2022/06/13 06:35:25;;;;;;;;;;;18.20;99.90;;;;;;5115022;28;19974;-68
2022/06/13 06:37:52;;;;;;;;;;;18.10;99.90;;;;;;5115018;28;20321;-68
2022/06/13 06:40:18;;;;;;;;;;;18.00;99.90;;;;;;5114550;28;19926;-66
2022/06/13 06:42:43;;;;;;;;;;;17.90;99.90;;;;;;5114691;28;20551;-66
2022/06/13 06:45:09;;;;;;;;;;;17.70;99.90;;;;;;5114669;28;19992;-66
2022/06/13 06:47:35;;;;;;;;;;;17.70;99.90;;;;;;5113304;28;19974;-68
2022/06/13 06:50:02;;;;;;;;;;;17.60;99.90;;;;;;5113562;28;20269;-68
2022/06/13 06:52:28;;;;;;;;;;;17.40;99.90;;;;;;5114873;28;19930;-68
2022/06/13 07:00:22;;;;;;;;;;;17.50;99.90;;;;;;5114427;28;20014;-68
2022/06/13 07:02:48;;;;;;;;;;;17.80;99.90;;;;;;5114234;28;19975;-68
2022/06/13 07:05:13;;;;;;;;;;;17.50;99.90;;;;;;5114468;28;19930;-68
2022/06/13 07:07:39;;;;;;;;;;;17.40;99.90;;;;;;5114342;28;19935;-68
2022/06/13 07:10:05;;;;;;;;;;;17.40;99.90;;;;;;5112817;28;19920;-68
2022/06/13 07:12:30;;;;;;;;;;;17.30;99.90;;;;;;5114324;28;19928;-68
2022/06/13 07:14:56;;;;;;;;;;;17.30;99.90;;;;;;5114319;28;19919;-68
2022/06/13 07:17:22;;;;;;;;;;;17.30;99.90;;;;;;5114241;28;19927;-68
2022/06/13 07:19:47;;;;;;;;;;;17.20;99.90;;;;;;5113828;28;19971;-68
2022/06/13 07:22:15;;;;;;;;;;;17.10;99.90;;;;;;5113873;28;20013;-68
2022/06/13 07:24:40;;;;;;;;;;;17.00;99.90;;;;;;5113978;28;19926;-67
2022/06/13 07:27:05;;;;;;;;;;;16.90;99.90;;;;;;5113802;28;20018;-76
2022/06/13 07:29:31;;;;;;;;;;;16.70;99.90;;;;;;5112711;28;20019;-73
2022/06/13 07:32:05;;;;;;;;;;;16.10;99.90;;;;;;5114458;28;20375;-71
2022/06/13 07:34:31;;;;;;;;;;;15.70;99.90;;;;;;5113881;28;20379;-71
2022/06/13 07:36:57;;;;;;;;;;;15.50;99.90;;;;;;5113968;28;19920;-71
2022/06/13 07:39:23;;;;;;;;;;;15.20;99.90;;;;;;5113659;28;19924;-70
2022/06/13 07:41:49;;;;;;;;;;;15.10;99.90;;;;;;5113858;28;20631;-70
2022/06/13 07:44:20;;;;;;;;;;;15.10;99.90;;;;;;5113974;28;19970;-70
2022/06/13 07:46:46;;;;;;;;;;;15.00;99.90;;;;;;5113645;28;19931;-69
2022/06/13 07:49:12;;;;;;;;;;;14.90;99.90;;;;;;5113542;28;19919;-69
2022/06/13 07:51:38;;;;;;;;;;;15.10;99.90;;;;;;5113692;28;20307;-69
2022/06/13 07:54:04;;;;;;;;;;;15.20;99.90;;;;;;5113585;28;19985;-68
2022/06/13 07:56:30;;;;;;;;;;;15.40;99.90;;;;;;5113530;28;20007;-69
2022/06/13 07:58:56;;;;;;;;;;;15.60;99.90;;;;;;5113311;27;19973;-68
2022/06/13 08:01:22;;;;;;;;;;;15.80;99.90;;;;;;5113698;28;19920;-68
2022/06/13 08:03:47;;;;;;;;;;;16.10;99.90;;;;;;5113590;28;19919;-69
2022/06/13 08:06:13;;;;;;;;;;;16.30;99.90;;;;;;5113556;28;19931;-68
2022/06/13 08:08:40;;;;;;;;;;;16.30;99.90;;;;;;5112990;28;20502;-68
2022/06/13 08:11:07;;;;;;;;;;;16.50;99.90;;;;;;5113491;28;20012;-69
2022/06/13 08:13:33;;;;;;;;;;;16.80;99.90;;;;;;5113246;28;20049;-69
2022/06/13 08:15:58;;;;;;;;;;;17.00;99.90;;;;;;5113325;28;19982;-69
2022/06/13 08:18:24;;;;;;;;;;;17.00;99.90;;;;;;5113070;28;20326;-71
2022/06/13 08:20:50;;;;;;;;;;;17.30;99.90;;;;;;5112831;28;19927;-69
2022/06/13 08:23:16;;;;;;;;;;;17.40;99.90;;;;;;5113081;28;19927;-68
2022/06/13 08:25:42;;;;;;;;;;;17.40;99.90;;;;;;5113327;28;20398;-69
2022/06/13 08:28:09;;;;;;;;;;;17.40;99.90;;;;;;5112882;28;19928;-68
2022/06/13 08:30:39;;;;;;;;;;;17.60;99.90;;;;;;5112519;28;20411;-67
2022/06/13 08:33:04;;;;;;;;;;;17.70;99.90;;;;;;5113065;27;20040;-67
2022/06/13 08:35:30;;;;;;;;;;;17.70;99.90;;;;;;5112556;28;19940;-67
2022/06/13 08:37:55;;;;;;;;;;;17.80;99.90;;;;;;5112484;28;19919;-67
2022/06/13 08:40:22;;;;;;;;;;;17.90;99.90;;;;;;5112331;28;19920;-67
2022/06/13 08:42:56;;;;;;;;;;;17.90;99.90;;;;;;5111276;28;19955;-67
2022/06/13 08:45:24;;;;;;;;;;;17.90;99.90;;;;;;5112480;28;19920;-67
2022/06/13 08:47:57;;;;;;;;;;;17.80;99.90;;;;;;5112305;28;19927;-67
2022/06/13 08:50:34;;;;;;;;;;;17.90;99.90;;;;;;5110710;28;19919;-67
2022/06/13 08:53:00;;;;;;;;;;;17.90;99.90;;;;;;5112290;28;19927;-67
2022/06/13 08:55:37;;;;;;;;;;;17.80;99.90;;;;;;5111076;28;19920;-67
2022/06/13 08:58:07;;;;;;;;;;;17.90;99.90;;;;;;5112121;28;20002;-67
2022/06/13 09:00:34;;;;;;;;;;;17.90;99.90;;;;;;5110702;28;19976;-67
2022/06/13 09:03:23;;;;;;;;;;;18.10;99.90;;;;;;5111906;28;20376;-67
2022/06/13 09:05:52;;;;;;;;;;;18.00;99.90;;;;;;5112145;28;20047;-67
2022/06/13 09:08:22;;;;;;;;;;;18.10;99.90;;;;;;5111911;28;19949;-67
2022/06/13 09:10:53;;;;;;;;;;;18.10;99.90;;;;;;5112045;28;19926;-67
2022/06/13 09:13:23;;;;;;;;;;;18.30;99.90;;;;;;5111964;28;20399;-67
2022/06/13 09:16:10;;;;;;;;;;;18.40;99.90;;;;;;5112180;28;19924;-67
2022/06/13 09:18:50;;;;;;;;;;;18.50;99.90;;;;;;5111783;28;19924;-67
2022/06/13 09:21:28;;;;;;;;;;;18.60;99.90;;;;;;5111896;28;20342;-67
2022/06/13 09:23:54;;;;;;;;;;;18.50;99.90;;;;;;5110687;28;20261;-67
2022/06/13 09:26:23;;;;;;;;;;;18.40;99.90;;;;;;5111917;28;19926;-67
2022/06/13 09:28:56;;;;;;;;;;;18.30;99.90;;;;;;5110098;28;19968;-67
2022/06/13 09:31:30;;;;;;;;;;;18.00;99.90;;;;;;5110213;28;19919;-67
2022/06/13 09:33:59;;;;;;;;;;;18.20;99.90;;;;;;5110114;28;19927;-67
2022/06/13 09:36:29;;;;;;;;;;;18.30;99.90;;;;;;5111584;28;19975;-67
2022/06/13 09:39:06;;;;;;;;;;;18.40;99.90;;;;;;5111509;28;19964;-67
2022/06/13 09:41:44;;;;;;;;;;;18.60;99.90;;;;;;5111725;28;19966;-67
2022/06/13 09:44:31;;;;;;;;;;;18.50;99.90;;;;;;5111567;28;19920;-67
2022/06/13 09:46:59;;;;;;;;;;;18.60;99.90;;;;;;5111494;28;19923;-67
2022/06/13 09:49:36;;;;;;;;;;;18.70;99.90;;;;;;5111321;28;19927;-67
2022/06/13 09:52:21;;;;;;;;;;;18.80;99.90;;;;;;5111562;28;19926;-67
2022/06/13 09:55:25;;;;;;;;;;;18.90;99.90;;;;;;5111471;28;19927;-67
2022/06/13 09:58:15;;;;;;;;;;;18.90;99.90;;;;;;5028513;28;20074;-67
2022/06/13 10:00:43;;;;;;;;;;;18.80;99.90;;;;;;5001324;28;20444;-67
2022/06/13 10:03:12;;;;;;;;;;;18.70;99.90;;;;;;5082059;28;19968;-66
2022/06/13 10:05:37;;;;;;;;;;;18.50;99.90;;;;;;5111203;28;19927;-66
2022/06/13 10:08:17;;;;;;;;;;;18.30;99.90;;;;;;5111440;28;20699;-67
2022/06/13 10:11:02;;;;;;;;;;;18.10;99.90;;;;;;5111359;28;19926;-66
2022/06/13 10:13:33;;;;;;;;;;;18.10;99.90;;;;;;5111266;28;19966;-66
2022/06/13 10:16:06;;;;;;;;;;;18.00;99.90;;;;;;5111224;28;19985;-67
2022/06/13 10:18:41;;;;;;;;;;;17.90;99.90;;;;;;5111096;28;19920;-66
2022/06/13 10:21:06;;;;;;;;;;;18.10;99.90;;;;;;5111407;28;19927;-67
2022/06/13 10:23:51;;;;;;;;;;;18.30;99.90;;;;;;5111251;28;20395;-67
2022/06/13 10:26:26;;;;;;;;;;;18.40;99.90;;;;;;5111153;28;19967;-66
2022/06/13 10:29:10;;;;;;;;;;;18.50;99.90;;;;;;5111036;28;19920;-66
2022/06/13 10:31:41;;;;;;;;;;;18.60;99.90;;;;;;5111278;28;19924;-66
2022/06/13 10:34:24;;;;;;;;;;;18.90;99.90;;;;;;5111212;28;19920;-67
2022/06/13 10:36:54;;;;;;;;;;;19.10;99.90;;;;;;5111135;28;19919;-66
2022/06/13 10:39:21;;;;;;;;;;;19.10;99.90;;;;;;5111094;28;19996;-67
2022/06/13 10:41:51;;;;;;;;;;;19.00;99.90;;;;;;5111311;28;19965;-66
2022/06/13 10:44:18;;;;;;;;;;;19.10;99.90;;;;;;5112302;28;19923;-67
2022/06/13 10:46:46;;;;;;;;;;;19.20;99.90;;;;;;5114735;28;20295;-66
2022/06/13 10:49:13;;;;;;;;;;;19.20;99.90;;;;;;5113014;28;19920;-67
2022/06/13 10:51:39;;;;;;;;;;;19.10;99.90;;;;;;5114796;28;19968;-66
2022/06/13 10:54:08;;;;;;;;;;;18.90;99.90;;;;;;5114782;28;19920;-67
2022/06/13 10:56:35;;;;;;;;;;;18.80;99.90;;;;;;5114615;28;19927;-66
2022/06/13 10:59:01;;;;;;;;;;;18.90;99.90;;;;;;5114123;28;19923;-67
2022/06/13 11:01:28;;;;;;;;;;;19.00;99.90;;;;;;5114441;28;20006;-67
2022/06/13 11:04:02;;;;;;;;;;;19.00;99.90;;;;;;5114143;28;19979;-66
2022/06/13 11:06:38;;;;;;;;;;;18.90;99.90;;;;;;5114358;28;19931;-66
2022/06/13 11:09:05;;;;;;;;;;;18.90;99.90;;;;;;5113965;28;20725;-67
2022/06/13 11:11:33;;;;;;;;;;;18.80;99.90;;;;;;5114324;28;19923;-66
2022/06/13 11:13:58;;;;;;;;;;;19.10;99.90;;;;;;5114186;28;19930;-66
2022/06/13 11:24:45;;;;;;;;;;;19.70;99.90;;;;;;5113883;28;19919;-66
2022/06/13 11:27:39;;;;;;;;;;;19.90;99.90;;;;;;5113800;28;20430;-67
2022/06/13 11:30:19;;;;;;;;;;;19.50;99.90;;;;;;5113710;28;19978;-67
2022/06/13 11:32:57;;;;;;;;;;;19.10;99.90;;;;;;5113675;28;19924;-67
2022/06/13 11:35:32;;;;;;;;;;;18.90;99.90;;;;;;5113943;28;19920;-66
2022/06/13 11:38:27;;;;;;;;;;;18.70;99.90;;;;;;5113754;28;19920;-66
2022/06/13 11:40:57;;;;;;;;;;;18.50;99.90;;;;;;5096110;28;19920;-67
2022/06/13 11:43:31;;;;;;;;;;;18.20;99.90;;;;;;5113413;28;19920;-66
2022/06/13 11:45:58;;;;;;;;;;;18.10;99.90;;;;;;5113789;28;20278;-67
2022/06/13 11:48:24;;;;;;;;;;;18.10;99.90;;;;;;5113462;28;20318;-66
2022/06/13 11:50:54;;;;;;;;;;;18.30;99.90;;;;;;5113527;28;19919;-66
2022/06/13 11:53:35;;;;;;;;;;;18.30;99.90;;;;;;5113468;28;19920;-67
2022/06/13 11:56:02;;;;;;;;;;;18.30;99.90;;;;;;5112867;28;20342;-66
2022/06/13 11:58:30;;;;;;;;;;;18.40;99.90;;;;;;5113194;28;19923;-67
2022/06/13 12:01:03;;;;;;;;;;;18.50;99.90;;;;;;5112002;28;19927;-67
2022/06/13 12:03:29;;;;;;;;;;;18.60;99.90;;;;;;5113163;28;19923;-66
2022/06/13 12:06:11;;;;;;;;;;;18.70;99.90;;;;;;5111912;28;19927;-67
2022/06/13 12:08:37;;;;;;;;;;;18.90;99.90;;;;;;5112988;28;19960;-67
2022/06/13 12:11:14;;;;;;;;;;;18.90;99.90;;;;;;5112484;28;20161;-67
2022/06/13 12:13:41;;;;;;;;;;;18.90;99.90;;;;;;5113053;28;19923;-67
2022/06/13 12:16:25;;;;;;;;;;;18.80;99.90;;;;;;5113017;28;19920;-67
2022/06/13 12:19:15;;;;;;;;;;;18.90;99.90;;;;;;5112539;28;20038;-67
2022/06/13 12:21:45;;;;;;;;;;;18.90;99.90;;;;;;5113035;28;19919;-66
2022/06/13 12:24:22;;;;;;;;;;;18.80;99.90;;;;;;5112830;28;19919;-67
2022/06/13 12:26:51;;;;;;;;;;;18.70;99.90;;;;;;5111456;28;19927;-66
2022/06/13 12:29:31;;;;;;;;;;;18.70;99.90;;;;;;5112348;28;20011;-66
2022/06/13 12:32:04;;;;;;;;;;;18.60;99.90;;;;;;5112752;28;19920;-67
2022/06/13 12:34:32;;;;;;;;;;;18.40;99.90;;;;;;5112689;28;19928;-66
2022/06/13 12:37:12;;;;;;;;;;;18.50;99.90;;;;;;5112669;28;19924;-67
2022/06/13 12:40:01;;;;;;;;;;;18.60;99.90;;;;;;5112769;28;19931;-66
2022/06/13 12:42:39;;;;;;;;;;;18.60;99.90;;;;;;5112682;28;19924;-67
2022/06/13 12:45:10;;;;;;;;;;;18.50;99.90;;;;;;5112413;28;19920;-66
2022/06/13 12:47:54;;;;;;;;;;;18.50;99.90;;;;;;5112298;28;19927;-67
2022/06/13 12:50:22;;;;;;;;;;;18.60;99.90;;;;;;5112242;28;20068;-67
2022/06/13 12:53:03;;;;;;;;;;;18.70;99.90;;;;;;5112349;28;19937;-67
2022/06/13 12:55:28;;;;;;;;;;;18.60;99.90;;;;;;5112377;28;20289;-67
2022/06/13 12:58:20;;;;;;;;;;;18.70;99.90;;;;;;5110981;28;19919;-67
2022/06/13 13:00:49;;;;;;;;;;;18.70;99.90;;;;;;5107704;28;19962;-67
2022/06/13 13:03:18;;;;;;;;;;;18.60;99.90;;;;;;5112167;28;19935;-67
2022/06/13 13:06:22;;;;;;;;;;;18.70;99.90;;;;;;5112114;28;19946;-66
2022/06/13 13:09:06;;;;;;;;;;;18.80;99.90;;;;;;5028371;28;19952;-67
2022/06/13 13:11:50;;;;;;;;;;;19.00;99.90;;;;;;5029175;28;19936;-66
2022/06/13 13:14:37;;;;;;;;;;;18.80;99.90;;;;;;5028986;28;19921;-67
2022/06/13 13:17:13;;;;;;;;;;;18.70;99.90;;;;;;5029084;28;20325;-66
2022/06/13 13:19:52;;;;;;;;;;;19.00;99.90;;;;;;5028799;28;19932;-66
2022/06/13 13:22:32;;;;;;;;;;;18.70;99.90;;;;;;5029002;28;19925;-67
2022/06/13 13:25:16;;;;;;;;;;;18.60;99.90;;;;;;5029150;28;20118;-67
2022/06/13 13:27:50;;;;;;;;;;;18.60;99.90;;;;;;5028786;28;19963;-66
2022/06/13 13:30:19;;;;;;;;;;;18.70;99.90;;;;;;5012058;28;19990;-66
2022/06/13 13:32:44;;;;;;;;;;;18.70;99.90;;;;;;5028753;28;19921;-67
2022/06/13 13:35:29;;;;;;;;;;;18.70;99.90;;;;;;5028724;28;20433;-67
2022/06/13 13:38:03;;;;;;;;;;;18.50;99.90;;;;;;5012120;28;19925;-67
2022/06/13 13:40:39;;;;;;;;;;;18.60;99.90;;;;;;5101596;28;20379;-66
2022/06/13 13:43:05;;;;;;;;;;;18.50;99.90;;;;;;5111941;28;19923;-66
2022/06/13 13:45:33;;;;;;;;;;;18.70;99.90;;;;;;5111617;28;19927;-67
2022/06/13 13:48:17;;;;;;;;;;;18.60;99.90;;;;;;5111533;28;19970;-66
2022/06/13 13:50:53;;;;;;;;;;;18.70;99.90;;;;;;5111575;28;19920;-66
2022/06/13 13:53:20;;;;;;;;;;;18.70;99.90;;;;;;5111472;28;20528;-67
2022/06/13 13:55:51;;;;;;;;;;;18.80;99.90;;;;;;5111678;28;19919;-67
2022/06/13 13:58:21;;;;;;;;;;;18.80;99.90;;;;;;5111289;28;19931;-67
2022/06/13 14:00:49;;;;;;;;;;;18.80;99.90;;;;;;5111229;28;19920;-67
2022/06/13 14:03:20;;;;;;;;;;;19.00;99.90;;;;;;5111584;28;19924;-67
2022/06/13 14:05:49;;;;;;;;;;;19.00;99.90;;;;;;5111672;28;19955;-67
2022/06/13 14:08:17;;;;;;;;;;;19.10;99.90;;;;;;5111309;28;19924;-66
2022/06/13 14:10:44;;;;;;;;;;;19.30;99.90;;;;;;5111175;28;19927;-67
2022/06/13 14:13:12;;;;;;;;;;;19.20;99.90;;;;;;5111175;28;19924;-67
2022/06/13 14:15:49;;;;;;;;;;;19.10;99.90;;;;;;5111228;28;19963;-67
2022/06/13 14:18:17;;;;;;;;;;;19.10;99.90;;;;;;5112286;28;20023;-67
2022/06/13 14:20:43;;;;;;;;;;;19.10;99.90;;;;;;5115189;28;19924;-66
2022/06/13 14:23:09;;;;;;;;;;;19.00;99.90;;;;;;5113799;28;19930;-66
2022/06/13 14:25:35;;;;;;;;;;;19.20;99.90;;;;;;5115177;28;20055;-67
2022/06/13 14:28:00;;;;;;;;;;;19.30;99.90;;;;;;5114913;28;19923;-67
2022/06/13 14:31:06;;;;;;;;;;;19.30;99.90;;;;;;5114785;28;20399;-67
2022/06/13 14:36:46;;;;;;;;;;;19.60;99.90;;;;;;5115063;28;19926;-67
2022/06/13 14:39:11;;;;;;;;;;;19.50;99.90;;;;;;5114846;28;19919;-67
2022/06/13 14:41:39;;;;;;;;;;;19.60;99.90;;;;;;5115088;28;19924;-67
2022/06/13 14:44:14;;;;;;;;;;;19.40;99.90;;;;;;5114898;28;19994;-66
2022/06/13 14:46:45;;;;;;;;;;;19.70;99.90;;;;;;5114754;28;19924;-67
2022/06/13 14:49:22;;;;;;;;;;;19.40;99.90;;;;;;5114695;28;19919;-67
2022/06/13 14:51:55;;;;;;;;;;;19.40;99.90;;;;;;5114654;28;19923;-67
2022/06/13 14:54:36;;;;;;;;;;;19.30;99.90;;;;;;5114542;28;19926;-67
2022/06/13 14:57:22;;;;;;;;;;;19.30;99.90;;;;;;5114435;28;19966;-66
2022/06/13 15:00:06;;;;;;;;;;;19.20;99.90;;;;;;5112666;28;20398;-67
2022/06/13 15:02:33;;;;;;;;;;;19.20;99.90;;;;;;5113009;28;19919;-67